Time;durP1;ratioP1;P1;durP2;ratioP2;P2;SDS_P1;SDS_P2;PMS_P1;PMS_P2;Temp;Humidity;BMP_temperature;BMP_pressure;BME280_temperature;BME280_humidity;BME280_pressure;Samples;Min_cycle;Max_cycle;Signal;HPM_P1;HPM_P2
2021/09/09 00:00:31;;;;;;;25.85;18.98;;;19.20;99.90;;;;;;5015654;28;20021;-74
2021/09/09 00:02:57;;;;;;;24.75;19.20;;;19.10;99.90;;;;;;5015480;28;20024;-73
2021/09/09 00:05:22;;;;;;;21.90;16.77;;;19.10;99.90;;;;;;5015016;28;20177;-73
2021/09/09 00:07:48;;;;;;;23.90;18.23;;;19.10;99.90;;;;;;5015522;28;20080;-73
2021/09/09 00:10:14;;;;;;;24.70;18.42;;;19.10;99.90;;;;;;5015051;28;20040;-74
2021/09/09 00:12:40;;;;;;;19.75;16.75;;;19.00;99.90;;;;;;5014553;28;20060;-72
2021/09/09 00:15:06;;;;;;;23.83;18.50;;;19.00;99.90;;;;;;5015140;28;20092;-73
2021/09/09 00:17:33;;;;;;;25.52;17.27;;;19.00;99.90;;;;;;5015146;28;20080;-72
2021/09/09 00:19:58;;;;;;;24.13;19.05;;;18.90;99.90;;;;;;5014225;28;20034;-73
2021/09/09 00:22:24;;;;;;;23.33;18.48;;;18.90;99.90;;;;;;5015205;28;20030;-73
2021/09/09 00:24:50;;;;;;;22.73;18.67;;;18.90;99.90;;;;;;5014900;28;20445;-73
2021/09/09 00:27:15;;;;;;;22.60;19.58;;;18.90;99.90;;;;;;5010535;28;20076;-73
2021/09/09 00:29:41;;;;;;;23.13;19.10;;;18.80;99.90;;;;;;5009953;28;20030;-73
2021/09/09 00:32:07;;;;;;;26.13;18.98;;;18.80;99.90;;;;;;5014688;28;20014;-73
2021/09/09 00:34:32;;;;;;;23.50;19.40;;;18.80;99.90;;;;;;5014445;28;20025;-73
2021/09/09 00:36:58;;;;;;;22.65;19.00;;;18.70;99.90;;;;;;5014555;28;20118;-74
2021/09/09 00:39:23;;;;;;;27.60;20.65;;;18.70;99.90;;;;;;5014781;28;20545;-73
2021/09/09 00:41:51;;;;;;;19.80;17.73;;;18.70;99.90;;;;;;5014189;28;20018;-72
2021/09/09 00:44:25;;;;;;;26.67;21.02;;;18.70;99.90;;;;;;5014814;28;20057;-74
2021/09/09 00:46:57;;;;;;;26.60;20.67;;;18.70;99.90;;;;;;5013703;28;20025;-72
2021/09/09 00:49:23;;;;;;;25.17;19.38;;;18.70;99.90;;;;;;5014589;28;20030;-74
2021/09/09 00:51:49;;;;;;;24.20;19.50;;;18.70;99.90;;;;;;5014081;28;20045;-74
2021/09/09 00:54:14;;;;;;;23.52;19.48;;;18.60;99.90;;;;;;5014009;28;20022;-73
2021/09/09 00:56:40;;;;;;;23.83;20.13;;;18.60;99.90;;;;;;5014325;28;20029;-73
2021/09/09 00:59:05;;;;;;;29.40;20.55;;;18.50;99.90;;;;;;5013931;28;20032;-73
2021/09/09 01:01:31;;;;;;;23.95;19.70;;;18.50;99.90;;;;;;5013780;28;20026;-73
2021/09/09 01:03:56;;;;;;;23.77;19.27;;;18.50;99.90;;;;;;5013576;28;20010;-73
2021/09/09 01:06:22;;;;;;;28.48;21.35;;;18.50;99.90;;;;;;5014169;28;20021;-73
2021/09/09 01:08:48;;;;;;;28.48;21.08;;;18.50;99.90;;;;;;5013750;28;20021;-74
2021/09/09 01:11:13;;;;;;;28.13;21.30;;;18.50;99.90;;;;;;5013865;28;20389;-74
2021/09/09 01:13:51;;;;;;;29.67;19.65;;;18.50;99.90;;;;;;5013954;28;20030;-73
2021/09/09 01:16:17;;;;;;;32.90;22.00;;;18.40;99.90;;;;;;5013236;28;20040;-72
2021/09/09 01:18:42;;;;;;;27.83;21.40;;;18.40;99.90;;;;;;5013892;28;20026;-74
2021/09/09 01:21:09;;;;;;;27.30;20.77;;;18.40;99.90;;;;;;5014051;28;20049;-73
2021/09/09 01:23:36;;;;;;;27.83;21.73;;;18.40;99.90;;;;;;5013363;28;20038;-74
2021/09/09 01:26:03;;;;;;;26.13;21.77;;;18.30;99.90;;;;;;5013568;28;20025;-74
2021/09/09 01:28:29;;;;;;;29.38;22.13;;;18.30;99.90;;;;;;5013865;28;20026;-73
2021/09/09 01:30:55;;;;;;;29.48;22.92;;;18.30;99.90;;;;;;5013158;28;20458;-74
2021/09/09 01:33:20;;;;;;;26.85;21.85;;;18.30;99.90;;;;;;5013938;28;20029;-74
2021/09/09 01:35:47;;;;;;;27.70;22.02;;;18.30;99.90;;;;;;5013733;28;20033;-73
2021/09/09 01:38:20;;;;;;;27.70;22.48;;;18.30;99.90;;;;;;5013047;28;20033;-73
2021/09/09 01:40:45;;;;;;;31.60;21.67;;;18.20;99.90;;;;;;5013203;28;20033;-74
2021/09/09 01:43:11;;;;;;;27.92;22.00;;;18.20;99.90;;;;;;5012076;28;20423;-74
2021/09/09 01:45:36;;;;;;;27.45;22.23;;;18.20;99.90;;;;;;5013281;28;20526;-73
2021/09/09 01:48:02;;;;;;;28.63;23.10;;;18.20;99.90;;;;;;5012387;28;20390;-72
2021/09/09 01:50:30;;;;;;;31.40;23.80;;;18.20;99.90;;;;;;5012309;28;20022;-73
2021/09/09 01:52:59;;;;;;;28.10;22.40;;;18.10;99.90;;;;;;5012645;28;20022;-74
2021/09/09 01:55:25;;;;;;;32.38;24.42;;;18.10;99.90;;;;;;5012733;28;20029;-73
2021/09/09 01:57:50;;;;;;;27.30;21.65;;;18.10;99.90;;;;;;5012240;28;20466;-73
2021/09/09 02:00:16;;;;;;;28.45;22.75;;;18.10;99.90;;;;;;4998907;28;20470;-74
2021/09/09 02:02:42;;;;;;;38.10;24.17;;;18.10;99.90;;;;;;5014219;28;20120;-74
2021/09/09 02:05:08;;;;;;;30.83;22.60;;;18.10;99.90;;;;;;5011880;28;20113;-74
2021/09/09 02:07:34;;;;;;;29.55;23.15;;;18.00;99.90;;;;;;5012481;28;20018;-74
2021/09/09 02:10:00;;;;;;;28.63;22.90;;;18.00;99.90;;;;;;5012025;28;20112;-74
2021/09/09 02:12:26;;;;;;;37.72;23.90;;;18.00;99.90;;;;;;5011993;28;20446;-73
2021/09/09 02:14:51;;;;;;;30.33;23.50;;;18.00;99.90;;;;;;5012779;28;20382;-73
2021/09/09 02:17:17;;;;;;;34.90;24.15;;;17.90;99.90;;;;;;5014083;28;20060;-75
2021/09/09 02:19:42;;;;;;;30.83;23.65;;;17.90;99.90;;;;;;5013852;28;20030;-74
2021/09/09 02:22:08;;;;;;;31.27;24.02;;;17.90;99.90;;;;;;5013522;28;20099;-73
2021/09/09 02:24:34;;;;;;;31.60;25.02;;;17.90;99.90;;;;;;5013836;28;20456;-73
2021/09/09 02:26:59;;;;;;;34.88;24.60;;;17.80;99.90;;;;;;5012189;28;20022;-72
2021/09/09 02:29:25;;;;;;;28.85;24.30;;;17.80;99.90;;;;;;5012897;28;20022;-73
2021/09/09 02:31:50;;;;;;;28.52;24.42;;;17.80;99.90;;;;;;5012896;28;20022;-74
2021/09/09 02:34:16;;;;;;;32.17;24.17;;;17.80;99.90;;;;;;5012149;28;20164;-74
2021/09/09 02:36:41;;;;;;;36.80;26.02;;;17.70;99.90;;;;;;5013187;28;20037;-73
2021/09/09 02:39:07;;;;;;;32.80;24.42;;;17.70;99.90;;;;;;5013332;28;20034;-73
2021/09/09 02:41:32;;;;;;;34.38;25.08;;;17.70;99.90;;;;;;5011894;28;20113;-74
2021/09/09 02:43:58;;;;;;;36.33;25.95;;;17.60;99.90;;;;;;5012465;28;20053;-73
2021/09/09 02:46:24;;;;;;;32.30;24.20;;;17.60;99.90;;;;;;5012022;28;20022;-74
2021/09/09 02:48:49;;;;;;;35.15;26.00;;;17.60;99.90;;;;;;5012742;28;20506;-74
2021/09/09 02:51:15;;;;;;;33.97;25.02;;;17.60;99.90;;;;;;5011824;28;20072;-74
2021/09/09 02:53:40;;;;;;;30.52;24.85;;;17.60;99.90;;;;;;5011020;28;20076;-73
2021/09/09 02:56:06;;;;;;;31.83;25.38;;;17.50;99.90;;;;;;5012218;28;20042;-74
2021/09/09 02:58:32;;;;;;;36.10;25.15;;;17.50;99.90;;;;;;5012268;28;20088;-73
2021/09/09 03:00:57;;;;;;;32.58;24.60;;;17.50;99.90;;;;;;5011412;28;20113;-74
2021/09/09 03:03:23;;;;;;;35.70;26.48;;;17.50;99.90;;;;;;5012488;28;20112;-74
2021/09/09 03:05:48;;;;;;;33.55;26.90;;;17.50;99.90;;;;;;5012520;28;20026;-73
2021/09/09 03:08:14;;;;;;;31.33;25.67;;;17.50;99.90;;;;;;5011275;28;20104;-73
2021/09/09 03:10:40;;;;;;;31.98;26.55;;;17.40;99.90;;;;;;5012438;28;20022;-73
2021/09/09 03:13:05;;;;;;;34.38;25.40;;;17.40;99.90;;;;;;5012051;28;20104;-72
2021/09/09 03:15:31;;;;;;;36.08;25.70;;;17.40;99.90;;;;;;5011215;28;20069;-73
2021/09/09 03:17:56;;;;;;;33.03;24.38;;;17.40;99.90;;;;;;5012083;28;20100;-75
2021/09/09 03:20:22;;;;;;;34.10;25.90;;;17.40;99.90;;;;;;5012137;28;20107;-73
2021/09/09 03:22:48;;;;;;;31.90;24.77;;;17.40;99.90;;;;;;5011726;28;20026;-74
2021/09/09 03:25:13;;;;;;;32.72;25.30;;;17.30;99.90;;;;;;5012243;28;20117;-74
2021/09/09 03:27:39;;;;;;;32.65;25.45;;;17.40;99.90;;;;;;5012240;28;20026;-73
2021/09/09 03:30:06;;;;;;;37.33;26.38;;;17.30;99.90;;;;;;5011257;28;20386;-75
2021/09/09 03:32:31;;;;;;;33.58;25.92;;;17.40;99.90;;;;;;5012281;28;20075;-73
2021/09/09 03:34:57;;;;;;;33.17;26.48;;;17.30;99.90;;;;;;5011881;28;20105;-74
2021/09/09 03:37:22;;;;;;;32.78;26.35;;;17.30;99.90;;;;;;5011788;28;20510;-75
2021/09/09 03:39:48;;;;;;;35.60;26.27;;;17.30;99.90;;;;;;5012099;28;20584;-74
2021/09/09 03:42:13;;;;;;;29.20;24.60;;;17.30;99.90;;;;;;5011907;28;20030;-75
2021/09/09 03:44:39;;;;;;;30.98;24.90;;;17.30;99.90;;;;;;5011123;28;20018;-75
2021/09/09 03:47:04;;;;;;;36.28;27.95;;;17.30;99.90;;;;;;5011924;28;20025;-75
2021/09/09 03:49:30;;;;;;;37.70;25.33;;;17.20;99.90;;;;;;5011961;28;20459;-74
2021/09/09 03:51:56;;;;;;;37.60;25.92;;;17.30;99.90;;;;;;5010809;28;20557;-77
2021/09/09 03:54:21;;;;;;;32.63;25.90;;;17.20;99.90;;;;;;5011929;28;20026;-74
2021/09/09 03:56:47;;;;;;;34.80;26.55;;;17.20;99.90;;;;;;5010967;28;20538;-74
2021/09/09 03:59:12;;;;;;;40.33;28.52;;;17.10;99.90;;;;;;5011657;28;20049;-74
2021/09/09 04:01:38;;;;;;;38.20;28.23;;;17.20;99.90;;;;;;5012006;28;20029;-74
2021/09/09 04:04:04;;;;;;;34.17;26.23;;;17.10;99.90;;;;;;5012200;28;20022;-75
2021/09/09 04:06:29;;;;;;;35.85;26.88;;;17.10;99.90;;;;;;5015521;28;20108;-75
2021/09/09 04:08:55;;;;;;;38.20;26.33;;;17.10;99.90;;;;;;5015171;28;20026;-74
2021/09/09 04:11:20;;;;;;;33.72;26.23;;;17.10;99.90;;;;;;5015287;28;20030;-74
2021/09/09 04:13:46;;;;;;;40.10;28.50;;;17.00;99.90;;;;;;5015496;28;20022;-75
2021/09/09 04:16:11;;;;;;;36.38;27.48;;;17.00;99.90;;;;;;5015573;28;20044;-74
2021/09/09 04:18:37;;;;;;;36.90;27.48;;;16.90;99.90;;;;;;5016707;28;20466;-74
2021/09/09 04:21:03;;;;;;;37.78;28.33;;;16.90;99.90;;;;;;5015331;28;20034;-75
2021/09/09 04:23:28;;;;;;;35.00;26.05;;;17.00;99.90;;;;;;5015312;28;20068;-73
2021/09/09 04:25:54;;;;;;;42.22;28.65;;;16.90;99.90;;;;;;5014228;28;20052;-74
2021/09/09 04:28:19;;;;;;;40.30;29.85;;;16.90;99.90;;;;;;5014906;28;20022;-75
2021/09/09 04:30:48;;;;;;;37.85;28.13;;;16.90;99.90;;;;;;5014975;28;20037;-75
2021/09/09 04:33:13;;;;;;;36.65;28.02;;;16.90;99.90;;;;;;5014402;28;20030;-75
2021/09/09 04:35:39;;;;;;;38.72;29.08;;;16.90;99.90;;;;;;5014844;28;20025;-74
2021/09/09 04:38:04;;;;;;;38.30;27.38;;;16.80;99.90;;;;;;5014469;28;20488;-74
2021/09/09 04:40:30;;;;;;;35.15;27.38;;;16.80;99.90;;;;;;5014270;28;20117;-75
2021/09/09 04:42:56;;;;;;;41.47;27.83;;;16.80;99.90;;;;;;5014574;28;20006;-75
2021/09/09 04:45:21;;;;;;;39.50;29.17;;;16.90;99.90;;;;;;5014447;28;20022;-75
2021/09/09 04:47:47;;;;;;;37.20;30.02;;;16.80;99.90;;;;;;5000031;28;20045;-74
2021/09/09 04:50:12;;;;;;;34.65;27.05;;;16.80;99.90;;;;;;5013954;28;20424;-76
2021/09/09 04:52:38;;;;;;;38.38;29.17;;;16.80;99.90;;;;;;5014581;28;20516;-75
2021/09/09 04:55:04;;;;;;;37.10;28.42;;;16.80;99.90;;;;;;5013087;28;20018;-75
2021/09/09 04:57:30;;;;;;;36.80;27.52;;;16.90;99.90;;;;;;5014313;28;20041;-74
2021/09/09 04:59:55;;;;;;;39.28;29.20;;;16.80;99.90;;;;;;5014427;28;20101;-75
2021/09/09 05:02:21;;;;;;;37.40;28.27;;;16.90;99.90;;;;;;5014296;28;20385;-75
2021/09/09 05:04:46;;;;;;;34.00;27.02;;;16.90;99.90;;;;;;5014449;28;20026;-75
2021/09/09 05:07:12;;;;;;;39.38;28.35;;;16.80;99.90;;;;;;5013349;28;20014;-76
2021/09/09 05:09:38;;;;;;;38.10;29.20;;;16.80;99.90;;;;;;5014463;28;20026;-75
2021/09/09 05:12:04;;;;;;;38.72;27.42;;;16.90;99.90;;;;;;5014116;28;20406;-75
2021/09/09 05:14:29;;;;;;;34.80;26.90;;;16.90;99.90;;;;;;5013571;28;20026;-75
2021/09/09 05:16:55;;;;;;;39.35;29.42;;;16.90;99.90;;;;;;5013032;28;20052;-75
2021/09/09 05:19:20;;;;;;;43.70;27.10;;;16.90;99.90;;;;;;5014430;28;20030;-75
2021/09/09 05:21:46;;;;;;;36.25;27.20;;;16.90;99.90;;;;;;5012585;28;20030;-74
2021/09/09 05:24:12;;;;;;;35.03;27.15;;;16.90;99.90;;;;;;5004166;28;20033;-73
2021/09/09 05:26:37;;;;;;;35.08;27.17;;;16.90;99.90;;;;;;4993774;28;20391;-74
2021/09/09 05:29:03;;;;;;;36.38;28.73;;;17.00;99.90;;;;;;4997825;28;20029;-74
2021/09/09 05:31:29;;;;;;;35.75;27.20;;;17.00;99.90;;;;;;4994554;28;20394;-73
2021/09/09 05:33:54;;;;;;;39.20;27.98;;;17.00;99.90;;;;;;4996046;28;20430;-74
2021/09/09 05:36:20;;;;;;;37.13;28.08;;;17.10;99.90;;;;;;4994246;28;20030;-76
2021/09/09 05:38:45;;;;;;;36.63;27.65;;;17.00;99.90;;;;;;4998532;28;20029;-73
2021/09/09 05:41:13;;;;;;;39.15;26.65;;;17.10;99.90;;;;;;4998634;28;20033;-74
2021/09/09 05:43:39;;;;;;;34.88;25.85;;;17.10;99.90;;;;;;4997197;28;20032;-73
2021/09/09 05:46:05;;;;;;;45.10;29.70;;;17.10;99.90;;;;;;4996444;28;20109;-73
2021/09/09 05:48:30;;;;;;;40.00;26.95;;;17.20;99.90;;;;;;4996752;28;20089;-75
2021/09/09 05:50:56;;;;;;;35.53;27.52;;;17.10;99.90;;;;;;5001624;28;20092;-73
2021/09/09 05:53:21;;;;;;;37.20;28.38;;;17.10;99.90;;;;;;5000202;28;20034;-74
2021/09/09 05:55:47;;;;;;;38.97;28.63;;;17.20;99.90;;;;;;5003924;28;20037;-73
2021/09/09 05:58:12;;;;;;;33.78;28.40;;;17.20;99.90;;;;;;5005183;28;20022;-74
2021/09/09 06:00:39;;;;;;;36.10;27.27;;;17.20;99.90;;;;;;5009386;28;20029;-75
2021/09/09 06:03:05;;;;;;;43.25;28.38;;;17.20;99.90;;;;;;4999284;28;20025;-72
2021/09/09 06:05:34;;;;;;;34.30;26.35;;;17.30;99.90;;;;;;5004031;28;20022;-73
2021/09/09 06:08:00;;;;;;;36.72;28.95;;;17.30;99.90;;;;;;5014548;28;20104;-73
2021/09/09 06:10:26;;;;;;;37.65;27.80;;;17.40;99.90;;;;;;5005402;28;20027;-73
2021/09/09 06:12:51;;;;;;;35.20;25.50;;;17.40;99.90;;;;;;5008116;28;20077;-73
2021/09/09 06:15:17;;;;;;;37.15;26.95;;;17.50;99.90;;;;;;5015863;28;20084;-74
2021/09/09 06:17:43;;;;;;;36.92;27.95;;;17.50;99.90;;;;;;5016176;28;20034;-74
2021/09/09 06:20:09;;;;;;;44.08;28.10;;;17.60;99.90;;;;;;5016105;28;20026;-74
2021/09/09 06:22:35;;;;;;;39.70;27.70;;;17.60;99.90;;;;;;5014423;28;20042;-76
2021/09/09 06:25:00;;;;;;;39.63;28.02;;;17.70;99.90;;;;;;5015696;28;20097;-73
2021/09/09 06:27:26;;;;;;;38.53;26.15;;;17.70;99.90;;;;;;5019019;28;20137;-74
2021/09/09 06:29:52;;;;;;;36.58;26.45;;;17.80;99.90;;;;;;5016105;28;20026;-74
2021/09/09 06:32:17;;;;;;;34.78;27.42;;;17.90;99.90;;;;;;5014885;28;20024;-73
2021/09/09 06:34:43;;;;;;;35.13;27.05;;;17.90;99.90;;;;;;5015507;28;20081;-74
2021/09/09 06:37:09;;;;;;;35.83;27.13;;;18.00;99.90;;;;;;5013087;28;20026;-73
2021/09/09 06:39:34;;;;;;;41.40;28.60;;;18.10;99.90;;;;;;5012298;28;20017;-74
2021/09/09 06:42:00;;;;;;;41.88;26.58;;;18.10;99.90;;;;;;5015104;28;20452;-73
2021/09/09 06:44:26;;;;;;;34.97;25.73;;;18.20;99.90;;;;;;5013320;28;20018;-73
2021/09/09 06:46:51;;;;;;;34.38;26.52;;;18.20;99.90;;;;;;5006000;28;20037;-74
2021/09/09 06:49:17;;;;;;;39.88;26.70;;;18.30;99.90;;;;;;5005006;28;20022;-73
2021/09/09 06:51:42;;;;;;;36.83;27.73;;;18.40;99.90;;;;;;5006938;28;20050;-74
2021/09/09 06:54:09;;;;;;;42.15;26.98;;;18.50;99.90;;;;;;5003157;28;20017;-74
2021/09/09 06:56:38;;;;;;;31.88;27.15;;;18.50;99.90;;;;;;5001500;28;20029;-74
2021/09/09 06:59:04;;;;;;;31.75;26.65;;;18.60;99.90;;;;;;4997843;28;20030;-72
2021/09/09 07:01:29;;;;;;;39.08;26.90;;;18.70;99.90;;;;;;5003714;28;20363;-73
2021/09/09 07:03:55;;;;;;;39.92;27.83;;;18.80;99.90;;;;;;5011908;28;20010;-74
2021/09/09 07:06:20;;;;;;;38.88;27.67;;;18.90;99.90;;;;;;5012960;28;20421;-73
2021/09/09 07:08:46;;;;;;;35.13;24.60;;;19.00;99.90;;;;;;5012852;28;20018;-73
2021/09/09 07:11:12;;;;;;;32.22;25.10;;;19.00;99.90;;;;;;5011906;28;20105;-73
2021/09/09 07:13:37;;;;;;;35.25;25.10;;;19.80;99.90;;;;;;5009241;28;20022;-74
2021/09/09 07:16:03;;;;;;;29.20;23.73;;;19.20;99.90;;;;;;5010299;28;20477;-74
2021/09/09 07:18:29;;;;;;;33.80;24.30;;;19.20;99.90;;;;;;5012943;28;20057;-74
2021/09/09 07:20:55;;;;;;;37.05;25.05;;;19.30;99.90;;;;;;5012771;28;20029;-74
2021/09/09 07:23:21;;;;;;;32.65;23.15;;;19.30;99.90;;;;;;5013682;28;20090;-75
2021/09/09 07:25:48;;;;;;;32.53;23.70;;;19.30;99.90;;;;;;5014139;28;20489;-72
2021/09/09 07:28:14;;;;;;;27.70;22.40;;;19.30;99.90;;;;;;5012734;28;20485;-73
2021/09/09 07:30:39;;;;;;;33.25;23.70;;;19.40;99.90;;;;;;5000922;28;20371;-73
2021/09/09 07:33:05;;;;;;;26.25;21.73;;;19.50;99.90;;;;;;5003576;28;20060;-73
2021/09/09 07:35:32;;;;;;;29.50;22.77;;;19.50;99.90;;;;;;5012826;28;20022;-74
2021/09/09 07:37:58;;;;;;;30.05;21.98;;;19.50;99.90;;;;;;4999772;28;20034;-73
2021/09/09 07:40:24;;;;;;;37.80;21.65;;;19.60;99.90;;;;;;5019556;28;20109;-74
2021/09/09 07:42:49;;;;;;;25.52;21.63;;;19.60;99.90;;;;;;5022272;28;20429;-74
2021/09/09 07:45:15;;;;;;;27.63;22.35;;;19.70;99.90;;;;;;5017821;28;20026;-74
2021/09/09 07:47:43;;;;;;;28.77;21.67;;;19.80;99.90;;;;;;5017298;28;20022;-74
2021/09/09 07:50:10;;;;;;;27.40;20.27;;;19.90;99.90;;;;;;5007294;28;20033;-73
2021/09/09 07:52:37;;;;;;;23.77;20.27;;;19.90;99.90;;;;;;5016168;28;20054;-72
2021/09/09 07:55:03;;;;;;;26.33;20.70;;;19.90;99.90;;;;;;5007373;28;20050;-74
2021/09/09 07:57:29;;;;;;;27.83;19.63;;;19.90;99.90;;;;;;5016078;28;20033;-73
2021/09/09 07:59:54;;;;;;;29.13;21.52;;;20.00;99.90;;;;;;5016361;28;20022;-74
2021/09/09 08:02:20;;;;;;;25.67;20.00;;;20.10;99.90;;;;;;5016839;28;20403;-74
2021/09/09 08:04:46;;;;;;;21.77;18.77;;;20.10;99.90;;;;;;5010744;28;20385;-73
2021/09/09 08:07:11;;;;;;;27.95;22.20;;;20.10;99.90;;;;;;5015626;28;20033;-74
2021/09/09 08:09:37;;;;;;;26.02;19.60;;;20.20;99.90;;;;;;5015889;28;20030;-75
2021/09/09 08:12:06;;;;;;;22.92;19.35;;;20.30;99.90;;;;;;5015401;28;20022;-73
2021/09/09 08:14:32;;;;;;;28.33;20.70;;;20.30;99.90;;;;;;5016391;28;20185;-74
2021/09/09 08:16:57;;;;;;;26.58;20.48;;;20.40;99.90;;;;;;5015400;28;20061;-74
2021/09/09 08:19:23;;;;;;;30.98;20.50;;;20.40;99.90;;;;;;5017146;28;20053;-74
2021/09/09 08:21:49;;;;;;;26.10;19.92;;;20.50;99.90;;;;;;5012340;28;20038;-74
2021/09/09 08:24:14;;;;;;;25.58;19.80;;;20.60;99.90;;;;;;5016557;28;20519;-72
2021/09/09 08:26:42;;;;;;;27.23;19.58;;;20.70;99.90;;;;;;5017591;28;20415;-74
2021/09/09 08:29:08;;;;;;;29.27;22.05;;;20.70;99.90;;;;;;5016203;28;20072;-75
2021/09/09 08:31:34;;;;;;;30.02;21.23;;;20.80;99.90;;;;;;5014399;28;20030;-74
2021/09/09 08:33:59;;;;;;;24.55;19.25;;;20.90;99.90;;;;;;5015066;28;20406;-74
2021/09/09 08:36:26;;;;;;;27.65;21.20;;;21.00;99.90;;;;;;5010238;28;20062;-73
2021/09/09 08:38:52;;;;;;;29.15;21.67;;;21.10;99.90;;;;;;5006341;28;20165;-74
2021/09/09 08:41:17;;;;;;;24.40;20.67;;;21.20;99.90;;;;;;5014531;28;20473;-74
2021/09/09 08:43:44;;;;;;;28.83;21.88;;;21.30;99.90;;;;;;5015164;28;20061;-74
2021/09/09 08:46:11;;;;;;;27.13;19.75;;;21.40;99.90;;;;;;5013750;28;20137;-74
2021/09/09 08:48:39;;;;;;;25.42;21.15;;;21.40;99.90;;;;;;5015042;28;20068;-75
2021/09/09 08:51:05;;;;;;;31.15;21.13;;;21.50;99.90;;;;;;5012867;28;20058;-73
2021/09/09 08:53:30;;;;;;;25.77;20.23;;;21.60;99.90;;;;;;5014188;28;20013;-74
2021/09/09 08:55:56;;;;;;;28.85;21.25;;;21.60;99.90;;;;;;5014414;28;20128;-75
2021/09/09 08:58:22;;;;;;;28.02;20.45;;;21.70;99.90;;;;;;5014478;28;20022;-74
2021/09/09 09:01:14;;;;;;;34.50;22.65;;;21.70;99.90;;;;;;5014392;28;20072;-73
2021/09/09 09:03:52;;;;;;;33.80;21.73;;;21.80;99.90;;;;;;5012784;28;20026;-74
2021/09/09 09:06:26;;;;;;;30.80;21.60;;;21.90;99.90;;;;;;5013419;28;20026;-73
2021/09/09 09:08:51;;;;;;;32.63;23.20;;;21.90;99.90;;;;;;5011692;28;20502;-73
2021/09/09 09:11:33;;;;;;;25.83;20.83;;;22.00;99.90;;;;;;5005879;28;20089;-76
2021/09/09 09:13:59;;;;;;;26.27;20.65;;;22.10;99.90;;;;;;5006618;28;20076;-76
2021/09/09 09:16:26;;;;;;;29.60;22.17;;;22.20;99.90;;;;;;5013806;28;20131;-74
2021/09/09 09:18:53;;;;;;;31.52;21.13;;;22.20;99.90;;;;;;5014687;28;20038;-74
2021/09/09 09:21:20;;;;;;;26.92;20.77;;;22.20;99.90;;;;;;5014603;28;20034;-77
2021/09/09 09:23:52;;;;;;;30.35;22.33;;;22.20;99.90;;;;;;5007126;28;20037;-76
2021/09/09 09:26:18;;;;;;;28.00;21.08;;;22.30;99.90;;;;;;5017358;28;20041;-76
2021/09/09 09:28:55;;;;;;;28.85;21.92;;;22.30;99.90;;;;;;5020485;28;20022;-74
2021/09/09 09:31:22;;;;;;;28.33;21.08;;;22.40;99.90;;;;;;5020728;28;20032;-74
2021/09/09 09:33:54;;;;;;;35.28;22.23;;;22.50;99.90;;;;;;5014003;28;20474;-74
2021/09/09 09:36:37;;;;;;;27.70;21.05;;;22.50;99.90;;;;;;5012719;28;20422;-75
2021/09/09 09:39:14;;;;;;;26.27;20.45;;;22.60;99.90;;;;;;5013843;28;20022;-74
2021/09/09 09:41:54;;;;;;;34.17;22.05;;;22.70;99.90;;;;;;5012562;28;20710;-75
2021/09/09 09:44:34;;;;;;;33.88;22.50;;;22.80;99.90;;;;;;5026181;28;20082;-77
2021/09/09 09:47:12;;;;;;;33.00;24.30;;;22.80;99.90;;;;;;5021201;28;20022;-77
2021/09/09 09:49:40;;;;;;;25.88;20.60;;;22.80;99.90;;;;;;5012987;28;20105;-81
2021/09/09 09:52:07;;;;;;;31.15;24.05;;;22.90;99.90;;;;;;5015969;28;20037;-81
2021/09/09 09:54:34;;;;;;;33.70;22.52;;;23.20;99.90;;;;;;5011889;28;20415;-76
2021/09/09 09:57:01;;;;;;;29.55;22.67;;;23.00;99.90;;;;;;5008925;28;20038;-76
2021/09/09 09:59:27;;;;;;;25.77;21.73;;;23.10;99.90;;;;;;5011048;28;20021;-76
2021/09/09 10:01:52;;;;;;;31.23;23.52;;;23.10;99.90;;;;;;5010844;28;20112;-76
2021/09/09 10:04:22;;;;;;;26.38;21.70;;;23.80;99.90;;;;;;5010449;28;20030;-77
2021/09/09 10:06:51;;;;;;;27.13;21.73;;;23.40;99.90;;;;;;5011613;28;20033;-76
2021/09/09 10:09:18;;;;;;;35.22;24.85;;;23.50;99.90;;;;;;5011394;28;20470;-76
2021/09/09 10:11:44;;;;;;;33.50;23.30;;;23.70;99.90;;;;;;5011034;28;20029;-76
2021/09/09 10:14:18;;;;;;;26.25;20.42;;;23.80;99.90;;;;;;5012862;28;20017;-76
2021/09/09 10:16:44;;;;;;;27.13;21.08;;;24.00;99.90;;;;;;5012449;28;20041;-76
2021/09/09 10:19:22;;;;;;;31.15;21.10;;;24.10;99.90;;;;;;5009629;28;20033;-76
2021/09/09 10:21:49;;;;;;;31.95;20.45;;;24.30;99.90;;;;;;5012386;28;20069;-77
2021/09/09 10:24:20;;;;;;;24.27;19.83;;;24.30;99.90;;;;;;5010775;28;20040;-76
2021/09/09 10:26:48;;;;;;;28.75;21.42;;;24.20;99.90;;;;;;5012344;28;20026;-75
2021/09/09 10:29:41;;;;;;;32.80;22.98;;;24.20;99.90;;;;;;5013052;28;20080;-75
2021/09/09 10:32:08;;;;;;;29.38;19.65;;;24.10;99.90;;;;;;5011832;28;20018;-76
2021/09/09 10:34:33;;;;;;;27.33;18.95;;;24.10;99.90;;;;;;5013051;28;20526;-76
2021/09/09 10:36:59;;;;;;;29.00;19.38;;;24.20;99.90;;;;;;5002207;28;20154;-75
2021/09/09 10:39:48;;;;;;;22.52;18.08;;;24.10;99.90;;;;;;5006836;28;20029;-76
2021/09/09 10:42:33;;;;;;;23.80;17.27;;;24.10;99.90;;;;;;4999776;28;20429;-75
2021/09/09 10:44:59;;;;;;;25.30;19.23;;;24.30;99.90;;;;;;5007549;28;20025;-75
2021/09/09 10:47:24;;;;;;;23.55;18.05;;;24.20;99.90;;;;;;5011873;28;20036;-76
2021/09/09 10:50:04;;;;;;;21.10;18.77;;;24.30;99.90;;;;;;5011345;28;20559;-76
2021/09/09 10:52:30;;;;;;;18.00;16.00;;;24.40;99.90;;;;;;5011190;28;20046;-76
2021/09/09 10:55:09;;;;;;;24.48;17.92;;;24.50;99.90;;;;;;4999341;28;20107;-77
2021/09/09 10:57:35;;;;;;;22.60;18.48;;;24.50;99.90;;;;;;5002516;28;20043;-76
2021/09/09 11:00:04;;;;;;;24.70;18.67;;;24.50;99.90;;;;;;4994537;28;20022;-76
2021/09/09 11:02:31;;;;;;;21.92;17.30;;;24.50;99.90;;;;;;5003099;28;20060;-76
2021/09/09 11:05:07;;;;;;;18.58;16.35;;;24.60;99.90;;;;;;4994322;28;20048;-76
2021/09/09 11:07:32;;;;;;;27.05;18.48;;;24.70;99.90;;;;;;4999933;28;20022;-77
2021/09/09 11:10:07;;;;;;;21.77;16.17;;;24.70;99.90;;;;;;4997844;28;20023;-77
2021/09/09 11:12:43;;;;;;;20.10;16.65;;;24.70;99.90;;;;;;5002237;28;20619;-77
2021/09/09 11:15:12;;;;;;;20.85;17.10;;;24.80;99.90;;;;;;4997530;28;20033;-77
2021/09/09 11:17:38;;;;;;;18.40;16.40;;;24.80;99.90;;;;;;5009562;28;20054;-77
2021/09/09 11:20:15;;;;;;;20.30;15.23;;;24.90;99.90;;;;;;5013992;28;20374;-77
2021/09/09 11:22:40;;;;;;;17.10;15.27;;;24.90;99.90;;;;;;5002584;28;20526;-76
2021/09/09 11:25:19;;;;;;;21.63;16.52;;;24.90;99.90;;;;;;4999296;28;20045;-75
2021/09/09 11:27:45;;;;;;;23.63;17.58;;;25.00;99.90;;;;;;4999078;28;20026;-75
2021/09/09 11:30:16;;;;;;;17.63;14.50;;;25.10;99.90;;;;;;5001507;28;20045;-78
2021/09/09 11:33:09;;;;;;;16.55;14.00;;;25.10;99.90;;;;;;4995598;28;20034;-77
2021/09/09 11:35:35;;;;;;;20.98;16.30;;;25.20;99.90;;;;;;5004579;28;20042;-77
2021/09/09 11:38:01;;;;;;;21.23;16.63;;;25.30;99.90;;;;;;5006595;28;21099;-76
2021/09/09 11:40:26;;;;;;;22.25;18.08;;;25.30;99.90;;;;;;5001559;28;20030;-77
2021/09/09 11:43:00;;;;;;;17.70;14.55;;;25.40;99.90;;;;;;5002858;28;20022;-77
2021/09/09 11:45:26;;;;;;;18.85;15.50;;;25.50;99.90;;;;;;5005869;28;20028;-75
2021/09/09 11:48:04;;;;;;;16.33;14.70;;;25.50;99.90;;;;;;5004726;28;20097;-77
2021/09/09 11:50:30;;;;;;;24.05;18.45;;;25.60;99.90;;;;;;4998084;28;20019;-76
2021/09/09 11:53:07;;;;;;;20.42;17.75;;;25.60;99.90;;;;;;5005563;28;20405;-76
2021/09/09 11:55:33;;;;;;;19.35;16.88;;;25.60;99.90;;;;;;4999941;28;20062;-76
2021/09/09 11:57:58;;;;;;;22.23;16.45;;;25.70;99.90;;;;;;5002097;28;20060;-76
2021/09/09 12:00:25;;;;;;;17.27;15.25;;;25.60;99.90;;;;;;5000063;28;20034;-76
2021/09/09 12:02:53;;;;;;;21.67;15.60;;;25.50;99.90;;;;;;5002878;28;20030;-76
2021/09/09 12:05:19;;;;;;;22.23;16.10;;;25.40;99.90;;;;;;5002279;28;20085;-76
2021/09/09 12:07:45;;;;;;;20.90;15.95;;;25.40;99.90;;;;;;5003029;28;20026;-75
2021/09/09 12:10:19;;;;;;;23.38;16.75;;;25.50;99.90;;;;;;4994371;28;20141;-76
2021/09/09 12:12:59;;;;;;;20.92;14.88;;;25.70;99.90;;;;;;5000947;28;20080;-77
2021/09/09 12:15:25;;;;;;;19.00;15.43;;;25.80;99.90;;;;;;4993340;28;20457;-76
2021/09/09 12:17:51;;;;;;;18.02;14.40;;;26.00;99.90;;;;;;4992701;28;20058;-77
2021/09/09 12:20:24;;;;;;;22.50;15.98;;;26.10;99.90;;;;;;4991995;28;20057;-76
2021/09/09 12:22:51;;;;;;;21.98;14.30;;;26.20;99.90;;;;;;5001419;28;20038;-76
2021/09/09 12:25:23;;;;;;;17.80;12.85;;;26.30;99.90;;;;;;5000435;28;20396;-77
2021/09/09 12:27:59;;;;;;;21.27;13.73;;;26.40;99.90;;;;;;5006292;28;20081;-76